createdAt,value
2018-02-17T00:02:19.471Z,89.10
2018-02-17T00:04:47.558Z,88.60
2018-02-17T00:07:15.630Z,88.50
2018-02-17T00:09:44.455Z,89.70
2018-02-17T00:12:12.509Z,89.70
2018-02-17T00:14:41.349Z,88.60
2018-02-17T00:17:09.390Z,88.60
2018-02-17T00:19:38.234Z,88.50
2018-02-17T00:22:06.302Z,88.10
2018-02-17T00:24:34.371Z,87.10
2018-02-17T00:27:03.220Z,88.50
2018-02-17T00:29:31.284Z,88.40
2018-02-17T00:31:59.351Z,87.80
2018-02-17T00:34:28.275Z,88.30
2018-02-17T00:36:56.330Z,87.50
2018-02-17T00:39:24.386Z,88.30
2018-02-17T00:41:52.472Z,88.90
2018-02-17T00:44:20.622Z,88.90
2018-02-17T00:46:48.696Z,87.70
2018-02-17T00:49:16.767Z,87.40
2018-02-17T00:51:44.843Z,87.90
2018-02-17T00:54:13.662Z,88.40
2018-02-17T00:56:41.725Z,88.30
2018-02-17T00:59:09.780Z,88.50
2018-02-17T01:01:37.862Z,88.50
2018-02-17T01:04:05.941Z,87.90
2018-02-17T01:06:34.003Z,87.70
2018-02-17T01:09:02.079Z,87.80
2018-02-17T01:11:30.132Z,88.20
2018-02-17T01:13:59.230Z,88.50
2018-02-17T01:16:27.269Z,88.50
2018-02-17T01:18:55.356Z,88.50
2018-02-17T01:21:23.421Z,88.80
2018-02-17T01:23:51.473Z,89.20
2018-02-17T01:26:19.537Z,89.40
2018-02-17T01:28:47.911Z,89.10
2018-02-17T01:31:15.974Z,88.90
2018-02-17T01:33:44.058Z,88.90
2018-02-17T01:36:12.138Z,88.90
2018-02-17T01:38:40.176Z,88.80
2018-02-17T01:41:08.239Z,88.80
2018-02-17T01:43:36.314Z,89.30
2018-02-17T01:46:04.386Z,88.80
2018-02-17T01:48:32.448Z,87.90
2018-02-17T01:51:01.147Z,88.60
2018-02-17T01:53:29.195Z,87.10
2018-02-17T01:55:57.252Z,86.50
2018-02-17T01:58:25.319Z,85.20
2018-02-17T02:00:53.391Z,84.70
2018-02-17T02:03:21.448Z,83.90
2018-02-17T02:05:50.263Z,82.70
2018-02-17T02:08:18.345Z,82.70
2018-02-17T02:10:46.423Z,82.90
2018-02-17T02:13:15.248Z,83.60
2018-02-17T02:15:43.298Z,83.50
2018-02-17T02:18:12.120Z,84.20
2018-02-17T02:20:40.181Z,84.00
2018-02-17T02:23:08.215Z,84.70
2018-02-17T02:25:36.280Z,84.80
2018-02-17T02:28:04.355Z,84.70
2018-02-17T02:30:32.435Z,85.10
2018-02-17T02:33:00.501Z,85.50
2018-02-17T02:35:29.323Z,85.80
2018-02-17T02:37:57.371Z,85.80
2018-02-17T02:40:25.449Z,85.70
2018-02-17T02:42:53.509Z,85.80
2018-02-17T02:45:21.606Z,86.00
2018-02-17T02:47:49.649Z,86.40
2018-02-17T02:50:17.705Z,86.30
2018-02-17T02:52:46.545Z,85.70
2018-02-17T02:55:14.606Z,85.70
2018-02-17T02:57:42.672Z,85.00
2018-02-17T03:00:11.498Z,85.00
2018-02-17T03:02:39.561Z,85.00
2018-02-17T03:05:08.385Z,85.40
2018-02-17T03:07:36.479Z,85.30
2018-02-17T03:10:04.544Z,86.20
2018-02-17T03:12:32.626Z,86.80
2018-02-17T03:15:00.812Z,86.50
2018-02-17T03:17:28.837Z,86.80
2018-02-17T03:19:56.919Z,86.90
2018-02-17T03:22:24.985Z,85.90
2018-02-17T03:24:53.061Z,84.50
2018-02-17T03:27:21.106Z,84.60
2018-02-17T03:29:49.954Z,85.70
2018-02-17T03:32:18.016Z,85.60
2018-02-17T03:34:46.067Z,86.40
2018-02-17T03:37:14.115Z,85.80
2018-02-17T03:39:42.174Z,86.20
2018-02-17T03:42:10.219Z,86.50
2018-02-17T03:44:38.353Z,86.50
2018-02-17T03:47:06.417Z,85.70
2018-02-17T03:49:34.493Z,85.80
2018-02-17T03:52:03.551Z,86.50
2018-02-17T03:54:31.624Z,86.50
2018-02-17T03:56:59.711Z,86.30
2018-02-17T03:59:27.774Z,86.40
2018-02-17T04:01:55.829Z,87.20
2018-02-17T04:04:23.892Z,86.80
2018-02-17T04:06:51.951Z,85.90
2018-02-17T04:09:20.032Z,85.80
2018-02-17T04:11:48.874Z,84.90
2018-02-17T04:14:17.025Z,84.90
2018-02-17T04:16:45.088Z,84.40
2018-02-17T04:19:13.140Z,84.40
2018-02-17T04:21:41.208Z,83.50
2018-02-17T04:24:10.042Z,82.90
2018-02-17T04:26:38.100Z,82.90
2018-02-17T04:29:06.156Z,82.20
2018-02-17T04:31:34.232Z,82.60
2018-02-17T04:34:02.307Z,82.20
2018-02-17T04:36:30.370Z,82.20
2018-02-17T04:38:58.441Z,82.40
2018-02-17T04:41:32.241Z,81.50
2018-02-17T04:44:03.806Z,81.10
2018-02-17T04:46:33.804Z,81.60
2018-02-17T04:49:23.374Z,79.80
2018-02-17T04:51:54.251Z,79.60
2018-02-17T04:54:27.074Z,77.70
2018-02-17T05:00:03.442Z,77.50
2018-02-17T05:02:36.316Z,76.60
2018-02-17T05:05:24.051Z,75.90
2018-02-17T05:08:06.977Z,75.50
2018-02-17T05:10:35.035Z,74.20
2018-02-17T05:13:03.079Z,74.80
2018-02-17T05:15:31.735Z,75.40
2018-02-17T05:18:05.496Z,76.00
2018-02-17T05:20:50.439Z,76.00
2018-02-17T05:23:18.588Z,76.90
2018-02-17T05:25:50.298Z,76.90
2018-02-17T05:28:19.233Z,77.20
2018-02-17T05:30:50.080Z,78.20
2018-02-17T05:33:33.051Z,78.50
2018-02-17T05:36:09.636Z,77.80
2018-02-17T05:38:37.708Z,77.80
2018-02-17T05:41:06.351Z,77.50
2018-02-17T05:43:34.431Z,77.80
2018-02-17T05:46:04.527Z,76.50
2018-02-17T05:48:33.419Z,76.30
2018-02-17T05:51:02.427Z,75.80
2018-02-17T05:53:30.465Z,75.70
2018-02-17T05:55:58.542Z,76.60
2018-02-17T05:58:26.605Z,76.10
2018-02-17T06:00:54.681Z,75.60
2018-02-17T06:03:22.750Z,73.30
2018-02-17T06:05:50.834Z,75.10
2018-02-17T06:08:18.902Z,75.90
2018-02-17T06:10:46.972Z,76.50
2018-02-17T06:13:16.781Z,75.60
2018-02-17T06:15:44.862Z,75.60
2018-02-17T06:18:12.915Z,75.90
2018-02-17T06:20:41.031Z,75.60
2018-02-17T06:23:09.098Z,75.30
2018-02-17T06:25:37.168Z,74.00
2018-02-17T06:28:05.240Z,74.50
2018-02-17T06:30:33.283Z,74.10
2018-02-17T06:33:02.108Z,73.60
2018-02-17T06:35:30.193Z,73.60
2018-02-17T06:37:59.012Z,74.30
2018-02-17T06:40:27.133Z,74.30
2018-02-17T06:42:55.186Z,74.40
2018-02-17T06:45:23.259Z,75.40
2018-02-17T06:47:51.315Z,77.00
2018-02-17T06:50:19.363Z,76.30
2018-02-17T06:52:47.428Z,75.30
2018-02-17T06:55:15.480Z,76.80
2018-02-17T06:57:43.558Z,76.60
2018-02-17T07:00:11.630Z,76.50
2018-02-17T07:02:39.690Z,77.10
2018-02-17T07:05:07.745Z,77.00
2018-02-17T07:07:35.800Z,77.90
2018-02-17T07:10:03.869Z,78.60
2018-02-17T07:12:31.927Z,78.70
2018-02-17T07:15:00.978Z,80.20
2018-02-17T07:17:29.039Z,80.10
2018-02-17T07:19:57.107Z,81.30
2018-02-17T07:22:25.925Z,80.30
2018-02-17T07:24:53.992Z,80.40
2018-02-17T07:27:22.051Z,80.10
2018-02-17T07:29:50.088Z,80.50
2018-02-17T07:32:18.177Z,81.00
2018-02-17T07:34:46.225Z,81.70
2018-02-17T07:37:15.070Z,82.70
2018-02-17T07:39:43.124Z,82.70
2018-02-17T07:42:11.195Z,83.50
2018-02-17T07:44:39.251Z,84.10
2018-02-17T07:47:07.359Z,84.50
2018-02-17T07:49:35.428Z,84.90
2018-02-17T07:52:04.389Z,86.00
2018-02-17T07:54:32.439Z,86.00
2018-02-17T07:57:00.496Z,86.20
2018-02-17T07:59:28.592Z,86.40
2018-02-17T08:01:56.703Z,87.40
2018-02-17T08:04:25.533Z,88.40
2018-02-17T08:06:53.592Z,88.40
2018-02-17T08:09:21.651Z,89.30
2018-02-17T08:11:49.700Z,89.80
2018-02-17T08:14:17.756Z,90.00
2018-02-17T08:16:46.044Z,89.80
2018-02-17T08:19:14.109Z,88.60
2018-02-17T08:21:42.172Z,88.80
2018-02-17T08:24:10.266Z,88.90
2018-02-17T08:26:38.350Z,88.60
2018-02-17T08:29:06.409Z,89.10
2018-02-17T08:31:35.252Z,89.10
2018-02-17T08:34:03.337Z,89.10
2018-02-17T08:36:31.397Z,89.20
2018-02-17T08:38:59.457Z,89.10
2018-02-17T08:41:27.492Z,88.40
2018-02-17T08:43:55.564Z,87.70
2018-02-17T08:46:23.647Z,88.30
2018-02-17T08:48:51.713Z,88.00
2018-02-17T08:51:19.769Z,88.10
2018-02-17T08:53:47.837Z,87.80
2018-02-17T08:56:15.892Z,88.10
2018-02-17T08:58:43.974Z,87.90
2018-02-17T09:01:12.789Z,87.40
2018-02-17T09:03:40.847Z,87.40
2018-02-17T09:06:08.916Z,86.70
2018-02-17T09:08:36.980Z,86.90
2018-02-17T09:11:05.045Z,87.30
2018-02-17T09:13:33.103Z,87.20
2018-02-17T09:16:01.280Z,86.90
2018-02-17T09:18:29.359Z,87.80
2018-02-17T09:20:57.411Z,88.10
2018-02-17T09:23:25.486Z,87.60
2018-02-17T09:25:54.333Z,87.10
2018-02-17T09:28:22.389Z,87.00
2018-02-17T09:30:50.456Z,87.60
2018-02-17T09:33:18.513Z,88.00
2018-02-17T09:35:46.558Z,89.00
2018-02-17T09:38:14.627Z,88.20
2018-02-17T09:40:42.695Z,88.00
2018-02-17T09:43:10.744Z,87.90
2018-02-17T09:45:38.810Z,88.10
2018-02-17T09:48:06.876Z,87.30
2018-02-17T09:50:34.932Z,85.70
2018-02-17T09:53:02.982Z,85.90
2018-02-17T09:55:31.031Z,85.70
2018-02-17T09:57:59.082Z,86.70
2018-02-17T10:00:27.156Z,87.70
2018-02-17T10:02:55.962Z,87.90
2018-02-17T10:05:24.020Z,87.20
2018-02-17T10:07:52.831Z,88.60
2018-02-17T10:10:21.701Z,87.40
2018-02-17T10:12:49.831Z,87.40
2018-02-17T10:15:17.957Z,87.30
2018-02-17T10:17:46.013Z,87.50
2018-02-17T10:20:14.058Z,88.20
2018-02-17T10:22:42.875Z,88.80
2018-02-17T10:25:11.711Z,88.90
2018-02-17T10:27:39.768Z,88.90
2018-02-17T10:30:07.818Z,89.30
2018-02-17T10:32:35.880Z,89.40
2018-02-17T10:35:03.958Z,89.50
2018-02-17T10:37:32.009Z,89.50
2018-02-17T10:40:00.060Z,89.40
2018-02-17T10:42:28.890Z,90.20
2018-02-17T10:44:56.970Z,90.20
2018-02-17T10:47:25.035Z,90.30
2018-02-17T10:49:53.889Z,90.50
2018-02-17T10:52:22.718Z,90.70
2018-02-17T10:54:50.786Z,90.70
2018-02-17T10:57:18.839Z,90.40
2018-02-17T10:59:46.905Z,90.40
2018-02-17T11:02:15.732Z,90.50
2018-02-17T11:04:43.792Z,90.40
2018-02-17T11:07:11.851Z,90.30
2018-02-17T11:09:40.683Z,90.20
2018-02-17T11:12:08.743Z,90.20
2018-02-17T11:14:37.585Z,90.00
2018-02-17T11:17:05.651Z,90.00
2018-02-17T11:19:33.717Z,88.80
2018-02-17T11:22:02.524Z,88.60
2018-02-17T11:24:30.585Z,88.60
2018-02-17T11:26:58.662Z,89.70
2018-02-17T11:29:26.755Z,90.00
2018-02-17T11:31:55.594Z,90.30
2018-02-17T11:34:23.643Z,90.30
2018-02-17T11:36:52.464Z,90.80
2018-02-17T11:39:20.526Z,90.70
2018-02-17T11:41:49.351Z,91.10
2018-02-17T11:44:17.415Z,91.00
2018-02-17T11:46:46.243Z,91.00
2018-02-17T11:49:14.292Z,91.00
2018-02-17T11:51:43.128Z,90.30
2018-02-17T11:54:11.202Z,90.30
2018-02-17T11:56:39.247Z,90.40
2018-02-17T11:59:07.317Z,90.10
2018-02-17T12:01:35.399Z,90.20
2018-02-17T12:04:03.456Z,89.30
2018-02-17T12:06:31.667Z,89.40
2018-02-17T12:08:59.732Z,88.60
2018-02-17T12:11:27.778Z,88.40
2018-02-17T12:13:55.864Z,88.60
2018-02-17T12:16:23.925Z,88.80
2018-02-17T12:18:51.993Z,88.10
2018-02-17T12:21:20.039Z,88.00
2018-02-17T12:23:48.107Z,87.50
2018-02-17T12:26:16.152Z,87.40
2018-02-17T12:28:44.221Z,86.90
2018-02-17T12:31:12.272Z,87.40
2018-02-17T12:33:40.362Z,87.20
2018-02-17T12:36:08.415Z,87.30
2018-02-17T12:38:36.477Z,86.80
2018-02-17T12:41:05.373Z,89.00
2018-02-17T12:43:33.411Z,89.00
2018-02-17T12:46:01.466Z,89.50
2018-02-17T12:48:29.606Z,88.90
2018-02-17T12:50:57.703Z,88.80
2018-02-17T12:53:25.718Z,89.30
2018-02-17T12:55:53.773Z,89.40
2018-02-17T12:58:21.818Z,89.40
2018-02-17T13:00:49.873Z,89.30
2018-02-17T13:03:18.161Z,88.80
2018-02-17T13:05:46.213Z,88.70
2018-02-17T13:08:14.649Z,88.00
2018-02-17T13:10:42.699Z,87.10
2018-02-17T13:13:11.538Z,87.50
2018-02-17T13:15:39.606Z,87.50
2018-02-17T13:18:07.707Z,87.40
2018-02-17T13:20:35.779Z,88.20
2018-02-17T13:23:03.832Z,89.00
2018-02-17T13:25:32.659Z,89.90
2018-02-17T13:28:00.700Z,89.80
2018-02-17T13:30:28.772Z,90.00
2018-02-17T13:32:56.840Z,89.40
2018-02-17T13:35:24.905Z,89.30
2018-02-17T13:37:52.966Z,89.50
2018-02-17T13:40:21.014Z,89.40
2018-02-17T13:42:49.077Z,89.30
2018-02-17T13:45:17.136Z,89.10
2018-02-17T13:47:45.344Z,89.50
2018-02-17T13:50:13.426Z,89.60
2018-02-17T13:52:41.553Z,89.40
2018-02-17T13:55:10.390Z,89.20
2018-02-17T13:57:38.514Z,89.10
2018-02-17T14:00:06.558Z,88.80
2018-02-17T14:02:34.705Z,88.70
2018-02-17T14:05:03.697Z,89.20
2018-02-17T14:07:31.758Z,89.10
2018-02-17T14:09:59.821Z,89.40
2018-02-17T14:12:27.892Z,89.60
2018-02-17T14:14:55.946Z,89.80
2018-02-17T14:17:23.994Z,89.90
2018-02-17T14:19:52.047Z,90.00
2018-02-17T14:22:20.113Z,90.10
2018-02-17T14:24:48.161Z,90.20
2018-02-17T14:27:16.207Z,90.20
2018-02-17T14:29:44.261Z,90.10
2018-02-17T14:32:12.313Z,90.00
2018-02-17T14:34:40.409Z,90.20
2018-02-17T14:37:10.000Z,89.40
2018-02-17T14:39:38.077Z,89.30
2018-02-17T14:42:06.124Z,88.40
2018-02-17T14:44:34.195Z,88.60
2018-02-17T14:47:02.253Z,89.10
2018-02-17T14:49:30.295Z,89.10
2018-02-17T14:51:58.358Z,90.00
2018-02-17T14:54:27.191Z,90.00
2018-02-17T14:56:55.240Z,90.00
2018-02-17T14:59:23.296Z,90.30
2018-02-17T15:01:52.142Z,90.40
2018-02-17T15:04:20.208Z,90.30
2018-02-17T15:06:48.278Z,90.10
2018-02-17T15:09:16.331Z,90.20
2018-02-17T15:11:44.405Z,89.60
2018-02-17T15:14:12.426Z,89.20
2018-02-17T15:16:40.515Z,89.10
2018-02-17T15:19:08.582Z,89.70
2018-02-17T15:21:38.294Z,90.50
2018-02-17T15:24:07.121Z,90.50
2018-02-17T15:26:35.178Z,90.50
2018-02-17T15:29:03.230Z,90.70
2018-02-17T15:31:31.305Z,90.70
2018-02-17T15:33:59.379Z,90.50
2018-02-17T15:36:27.434Z,90.60
2018-02-17T15:38:55.485Z,90.20
2018-02-17T15:41:23.556Z,90.30
2018-02-17T15:43:51.627Z,90.60
2018-02-17T15:46:19.696Z,90.80
2018-02-17T15:48:47.760Z,91.10
2018-02-17T15:51:15.814Z,91.40
2018-02-17T15:53:44.652Z,91.40
2018-02-17T15:56:12.727Z,91.60
2018-02-17T15:58:40.883Z,91.40
2018-02-17T16:01:09.702Z,91.20
2018-02-17T16:03:38.536Z,91.40
2018-02-17T16:06:06.586Z,91.40
2018-02-17T16:08:34.675Z,91.20
2018-02-17T16:11:02.720Z,91.30
2018-02-17T16:13:30.791Z,91.00
2018-02-17T16:15:58.833Z,91.00
2018-02-17T16:18:26.911Z,90.90
2018-02-17T16:20:54.980Z,90.90
2018-02-17T16:23:23.799Z,90.70
2018-02-17T16:25:51.873Z,90.70
2018-02-17T16:28:19.956Z,90.70
2018-02-17T16:30:48.016Z,90.70
2018-02-17T16:33:16.845Z,90.80
2018-02-17T16:35:44.900Z,90.80
2018-02-17T16:38:12.972Z,90.80
2018-02-17T16:40:41.035Z,90.60
2018-02-17T16:43:09.104Z,90.70
2018-02-17T16:45:37.162Z,90.60
2018-02-17T16:48:05.310Z,90.50
2018-02-17T16:50:33.364Z,90.50
2018-02-17T16:53:01.414Z,90.60
2018-02-17T16:55:29.467Z,90.90
2018-02-17T16:57:57.514Z,90.90
2018-02-17T17:00:25.594Z,90.80
2018-02-17T17:02:54.413Z,90.70
2018-02-17T17:05:22.478Z,90.60
2018-02-17T17:07:50.556Z,90.30
2018-02-17T17:10:18.648Z,90.50
2018-02-17T17:12:46.700Z,90.60
2018-02-17T17:15:14.759Z,90.50
2018-02-17T17:17:43.584Z,90.70
2018-02-17T17:20:11.657Z,90.70
2018-02-17T17:22:40.485Z,91.00
2018-02-17T17:25:08.553Z,91.00
2018-02-17T17:27:37.380Z,90.90
2018-02-17T17:30:05.431Z,90.80
2018-02-17T17:32:33.529Z,90.60
2018-02-17T17:35:01.582Z,90.80
2018-02-17T17:37:30.416Z,90.60
2018-02-17T17:39:58.483Z,90.60
2018-02-17T17:42:26.634Z,91.00
2018-02-17T17:44:54.659Z,90.60
2018-02-17T17:47:22.702Z,90.50
2018-02-17T17:49:50.768Z,90.80
2018-02-17T17:52:18.820Z,91.00
2018-02-17T17:54:46.875Z,91.00
2018-02-17T17:57:15.678Z,91.40
2018-02-17T17:59:43.778Z,91.40
2018-02-17T18:02:11.861Z,91.20
2018-02-17T18:04:40.659Z,91.50
2018-02-17T18:07:08.709Z,91.50
2018-02-17T18:09:36.760Z,91.50
2018-02-17T18:12:04.824Z,91.50
2018-02-17T18:14:32.889Z,91.60
2018-02-17T18:17:00.943Z,91.60
2018-02-17T18:19:28.997Z,91.60
2018-02-17T18:21:57.073Z,91.70
2018-02-17T18:24:25.137Z,91.50
2018-02-17T18:26:53.267Z,91.70
2018-02-17T18:29:21.329Z,91.60
2018-02-17T18:31:49.382Z,91.40
2018-02-17T18:34:17.442Z,91.70
2018-02-17T18:36:46.254Z,92.10
2018-02-17T18:39:14.347Z,92.10
2018-02-17T18:41:42.387Z,92.40
2018-02-17T18:44:10.466Z,91.80
2018-02-17T18:46:38.515Z,92.30
2018-02-17T18:49:06.584Z,92.40
2018-02-17T18:51:34.632Z,92.40
2018-02-17T18:54:03.460Z,92.80
2018-02-17T18:56:31.513Z,92.70
2018-02-17T18:59:00.358Z,92.60
2018-02-17T19:01:28.432Z,92.40
2018-02-17T19:03:56.531Z,92.40
2018-02-17T19:06:24.597Z,92.50
2018-02-17T19:08:52.673Z,91.90
2018-02-17T19:11:20.748Z,92.00
2018-02-17T19:13:49.573Z,91.70
2018-02-17T19:16:17.638Z,91.60
2018-02-17T19:18:46.474Z,91.90
2018-02-17T19:21:14.613Z,91.90
2018-02-17T19:23:42.656Z,91.80
2018-02-17T19:26:10.771Z,91.70
2018-02-17T19:28:38.968Z,91.90
2018-02-17T19:31:07.801Z,91.70
2018-02-17T19:33:35.883Z,91.70
2018-02-17T19:36:03.937Z,91.70
2018-02-17T19:38:32.013Z,91.40
2018-02-17T19:41:00.101Z,91.60
2018-02-17T19:43:28.954Z,91.90
2018-02-17T19:45:57.029Z,91.90
2018-02-17T19:48:25.179Z,92.30
2018-02-17T19:50:53.251Z,92.10
2018-02-17T19:53:22.091Z,92.10
2018-02-17T19:55:50.175Z,92.00
2018-02-17T19:58:18.237Z,92.10
2018-02-17T20:00:46.469Z,92.10
2018-02-17T20:03:14.488Z,91.80
2018-02-17T20:05:42.552Z,91.60
2018-02-17T20:08:10.859Z,91.50
2018-02-17T20:10:39.738Z,91.30
2018-02-17T20:13:07.805Z,91.30
2018-02-17T20:15:35.882Z,91.40
2018-02-17T20:18:04.832Z,91.30
2018-02-17T20:20:32.964Z,91.30
2018-02-17T20:23:01.944Z,91.30
2018-02-17T20:25:30.083Z,91.50
2018-02-17T20:27:58.212Z,91.30
2018-02-17T20:30:26.351Z,91.30
2018-02-17T20:32:54.432Z,91.40
2018-02-17T20:35:23.312Z,91.30
2018-02-17T20:37:51.337Z,91.30
2018-02-17T20:40:19.436Z,91.40
2018-02-17T20:42:48.360Z,91.40
2018-02-17T20:45:17.237Z,91.70
2018-02-17T20:47:45.327Z,91.60
2018-02-17T20:50:14.148Z,91.80
2018-02-17T20:52:42.204Z,91.80
2018-02-17T20:55:10.304Z,91.70
2018-02-17T20:57:38.369Z,92.00
2018-02-17T21:00:06.513Z,91.90
2018-02-17T21:02:34.611Z,91.60
2018-02-17T21:05:02.850Z,91.90
2018-02-17T21:07:30.980Z,91.70
2018-02-17T21:09:59.037Z,91.50
2018-02-17T21:12:27.238Z,91.60
2018-02-17T21:14:55.286Z,91.70
2018-02-17T21:17:23.346Z,91.70
2018-02-17T21:19:51.466Z,91.90
2018-02-17T21:22:19.519Z,91.90
2018-02-17T21:24:48.514Z,92.10
2018-02-17T21:27:16.562Z,92.10
2018-02-17T21:29:44.662Z,91.90
2018-02-17T21:32:12.707Z,91.60
2018-02-17T21:34:40.796Z,91.50
2018-02-17T21:37:08.855Z,91.50
2018-02-17T21:39:38.032Z,91.30
2018-02-17T21:42:06.082Z,91.30
2018-02-17T21:44:34.175Z,91.30
2018-02-17T21:47:02.328Z,91.50
2018-02-17T21:49:35.298Z,91.80
2018-02-17T21:52:03.474Z,91.80
2018-02-17T21:54:31.542Z,91.70
2018-02-17T21:56:59.695Z,91.70
2018-02-17T21:59:28.676Z,91.80
2018-02-17T22:01:57.494Z,91.70
2018-02-17T22:04:25.587Z,91.70
2018-02-17T22:06:53.629Z,91.70
2018-02-17T22:09:21.680Z,91.90
2018-02-17T22:11:49.747Z,91.50
2018-02-17T22:14:18.508Z,91.80
2018-02-17T22:16:47.401Z,91.80
2018-02-17T22:19:16.248Z,91.80
2018-02-17T22:21:44.433Z,91.80
2018-02-17T22:24:12.638Z,91.80
2018-02-17T22:26:40.696Z,91.90
2018-02-17T22:29:08.756Z,92.10
2018-02-17T22:31:37.655Z,92.20
2018-02-17T22:34:06.557Z,92.10
2018-02-17T22:36:36.120Z,92.10
2018-02-17T22:39:04.241Z,92.10
2018-02-17T22:41:32.294Z,91.80
2018-02-17T22:44:00.359Z,91.80
2018-02-17T22:46:28.623Z,91.80
2018-02-17T22:48:56.745Z,92.00
2018-02-17T22:51:25.524Z,92.30
2018-02-17T22:53:53.628Z,92.20
2018-02-17T22:56:21.955Z,92.30
2018-02-17T22:58:50.210Z,92.40
2018-02-17T23:01:18.250Z,92.50
2018-02-17T23:03:46.448Z,92.10
2018-02-17T23:06:14.483Z,92.10
2018-02-17T23:08:42.548Z,92.30
2018-02-17T23:11:10.902Z,92.50
2018-02-17T23:13:38.961Z,92.10
2018-02-17T23:16:07.802Z,91.50
2018-02-17T23:18:35.839Z,91.50
2018-02-17T23:21:04.699Z,91.60
2018-02-17T23:23:32.881Z,91.60
2018-02-17T23:26:00.949Z,91.80
2018-02-17T23:28:29.258Z,91.90
2018-02-17T23:30:57.327Z,92.00
2018-02-17T23:33:25.402Z,92.10
2018-02-17T23:35:53.623Z,92.10
2018-02-17T23:38:21.682Z,91.90
2018-02-17T23:40:49.765Z,91.80
2018-02-17T23:43:17.822Z,92.00
2018-02-17T23:45:45.920Z,92.20
2018-02-17T23:48:14.005Z,92.30
2018-02-17T23:50:42.849Z,92.30
2018-02-17T23:53:11.126Z,92.30
2018-02-17T23:55:39.234Z,92.30
2018-02-17T23:58:07.379Z,92.30
